createdAt,value
2022-10-26T00:00:18.757Z,9.757491
2022-10-26T00:01:18.782Z,9.757456
2022-10-26T00:02:18.878Z,9.757512
2022-10-26T00:03:18.707Z,9.757588
2022-10-26T00:04:18.698Z,9.757527
2022-10-26T00:05:18.715Z,9.757420
2022-10-26T00:06:18.689Z,9.757452
2022-10-26T00:07:18.669Z,9.757252
2022-10-26T00:08:18.663Z,9.757422
2022-10-26T00:09:18.659Z,9.757355
2022-10-26T00:10:18.679Z,9.757527
2022-10-26T00:11:18.649Z,9.757418
2022-10-26T00:12:18.639Z,9.757420
2022-10-26T00:13:18.621Z,9.757563
2022-10-26T00:14:18.643Z,9.757585
2022-10-26T00:15:18.630Z,9.757498
2022-10-26T00:16:18.599Z,9.757550
2022-10-26T00:17:18.589Z,9.757689
2022-10-26T00:18:18.583Z,9.758024
2022-10-26T00:19:18.580Z,9.758232
2022-10-26T00:20:18.598Z,9.758238
2022-10-26T00:21:18.558Z,9.758164
2022-10-26T00:22:18.545Z,9.758008
2022-10-26T00:23:18.537Z,9.758988
2022-10-26T00:24:18.534Z,9.758074
2022-10-26T00:25:18.551Z,9.757757
2022-10-26T00:26:18.520Z,9.757502
2022-10-26T00:27:18.507Z,9.757652
2022-10-26T00:28:18.494Z,9.757376
2022-10-26T00:29:18.485Z,9.757241
2022-10-26T00:30:18.503Z,9.757380
2022-10-26T00:31:18.465Z,9.757553
2022-10-26T00:32:18.464Z,9.757767
2022-10-26T00:33:18.448Z,9.757809
2022-10-26T00:34:18.451Z,9.757704
2022-10-26T00:35:28.869Z,9.758129
2022-10-26T00:36:20.417Z,9.757776
2022-10-26T00:37:18.418Z,9.757617
2022-10-26T00:38:18.406Z,9.757813
2022-10-26T00:39:18.400Z,9.758034
2022-10-26T00:40:18.420Z,9.757749
2022-10-26T00:41:18.380Z,9.757674
2022-10-26T00:42:18.379Z,9.757656
2022-10-26T00:43:18.364Z,9.757596
2022-10-26T00:44:18.352Z,9.757608
2022-10-26T00:45:18.383Z,9.757447
2022-10-26T00:46:18.337Z,9.757411
2022-10-26T00:47:18.340Z,9.757648
2022-10-26T00:48:18.317Z,9.757911
2022-10-26T00:50:18.334Z,9.757657
2022-10-26T00:51:18.291Z,9.757534
2022-10-26T00:52:18.279Z,9.757568
2022-10-26T00:53:18.272Z,9.757481
2022-10-26T00:54:18.270Z,9.757770
2022-10-26T00:55:18.264Z,9.757826
2022-10-26T00:56:18.277Z,9.757818
2022-10-26T00:57:18.249Z,9.757908
2022-10-26T00:58:18.234Z,9.757702
2022-10-26T00:59:18.227Z,9.757577
2022-10-26T01:00:18.217Z,9.757583
2022-10-26T01:01:18.336Z,9.757439
2022-10-26T01:02:18.200Z,9.757591
2022-10-26T01:03:18.288Z,9.757808
2022-10-26T01:04:18.188Z,9.757785
2022-10-26T01:05:18.191Z,9.757637
2022-10-26T01:06:18.199Z,9.757598
2022-10-26T01:07:18.206Z,9.757998
2022-10-26T01:08:18.151Z,9.757943
2022-10-26T01:09:18.138Z,9.758141
2022-10-26T01:10:18.131Z,9.757760
2022-10-26T01:11:18.151Z,9.757668
2022-10-26T01:12:18.118Z,9.757460
2022-10-26T01:13:18.104Z,9.757540
2022-10-26T01:14:18.115Z,9.757435
2022-10-26T01:15:18.093Z,9.757479
2022-10-26T01:16:18.118Z,9.757731
2022-10-26T01:17:18.088Z,9.757799
2022-10-26T01:18:18.072Z,9.757781
2022-10-26T01:19:18.061Z,9.757614
2022-10-26T01:20:18.060Z,9.757732
2022-10-26T01:21:18.083Z,9.757899
2022-10-26T01:22:18.038Z,9.757697
2022-10-26T01:23:18.030Z,9.757647
2022-10-26T01:24:18.014Z,9.757484
2022-10-26T01:25:18.012Z,9.757611
2022-10-26T01:26:18.033Z,9.757515
2022-10-26T01:27:17.995Z,9.757390
2022-10-26T01:28:18.005Z,9.757413
2022-10-26T01:29:17.978Z,9.757421
2022-10-26T01:30:17.977Z,9.757597
2022-10-26T01:31:18.006Z,9.757868
2022-10-26T01:32:17.951Z,9.757648
2022-10-26T01:33:17.938Z,9.757580
2022-10-26T01:34:17.931Z,9.757562
2022-10-26T01:35:17.929Z,9.757574
2022-10-26T01:36:17.944Z,9.757716
2022-10-26T01:37:17.907Z,9.757598
2022-10-26T01:38:17.900Z,9.757623
2022-10-26T01:39:17.891Z,9.757596
2022-10-26T01:40:17.880Z,9.757581
2022-10-26T01:41:17.902Z,9.757586
2022-10-26T01:42:17.868Z,9.757635
2022-10-26T01:43:17.882Z,9.757539
2022-10-26T01:44:17.848Z,9.757467
2022-10-26T01:45:17.843Z,9.757673
2022-10-26T01:47:17.831Z,9.757695
2022-10-26T01:48:17.821Z,9.757398
2022-10-26T01:49:17.811Z,9.757378
2022-10-26T01:50:17.802Z,9.757253
2022-10-26T01:51:17.825Z,9.757362
2022-10-26T01:52:17.784Z,9.757394
2022-10-26T01:53:17.775Z,9.757333
2022-10-26T01:54:17.767Z,9.757304
2022-10-26T01:55:17.751Z,9.757301
2022-10-26T01:56:17.787Z,9.757306
2022-10-26T01:57:17.735Z,9.757350
2022-10-26T01:58:17.738Z,9.757450
2022-10-26T01:59:17.724Z,9.757406
2022-10-26T02:00:17.714Z,9.757461
2022-10-26T02:01:17.762Z,9.757394
2022-10-26T02:02:17.695Z,9.757399
2022-10-26T02:03:17.713Z,9.757438
2022-10-26T02:04:17.710Z,9.757329
2022-10-26T02:05:18.671Z,9.757268
2022-10-26T02:06:17.665Z,9.757420
2022-10-26T02:07:17.682Z,9.757418
2022-10-26T02:08:17.657Z,9.757414
2022-10-26T02:09:17.636Z,9.757380
2022-10-26T02:10:17.634Z,9.757375
2022-10-26T02:11:17.627Z,9.757328
2022-10-26T02:12:17.647Z,9.757346
2022-10-26T02:13:17.604Z,9.757452
2022-10-26T02:14:18.608Z,9.757395
2022-10-26T02:15:17.595Z,9.757316
2022-10-26T02:16:17.584Z,9.757150
2022-10-26T02:17:17.606Z,9.757125
2022-10-26T02:18:17.565Z,9.757190
2022-10-26T02:19:17.557Z,9.757541
2022-10-26T02:20:17.552Z,9.757442
2022-10-26T02:21:17.542Z,9.757394
2022-10-26T02:22:17.567Z,9.757402
2022-10-26T02:23:17.529Z,9.757465
2022-10-26T02:24:17.515Z,9.757589
2022-10-26T02:25:17.505Z,9.757628
2022-10-26T02:26:17.499Z,9.757519
2022-10-26T02:27:17.513Z,9.757511
2022-10-26T02:28:17.480Z,9.757462
2022-10-26T02:29:17.473Z,9.757473
2022-10-26T02:30:17.481Z,9.757483
2022-10-26T02:31:17.476Z,9.757422
2022-10-26T02:32:17.476Z,9.757368
2022-10-26T02:33:17.464Z,9.757390
2022-10-26T02:34:17.439Z,9.757381
2022-10-26T02:35:17.427Z,9.757451
2022-10-26T02:36:17.420Z,9.757677
2022-10-26T02:37:17.438Z,9.757625
2022-10-26T02:38:17.399Z,9.757630
2022-10-26T02:39:17.395Z,9.757460
2022-10-26T02:40:17.390Z,9.757348
2022-10-26T02:41:17.381Z,9.757494
2022-10-26T02:42:17.406Z,9.757541
2022-10-26T02:43:17.360Z,9.757606
2022-10-26T02:44:17.351Z,9.757509
2022-10-26T02:45:17.342Z,9.757475
2022-10-26T02:46:17.326Z,9.757227
2022-10-26T02:47:17.371Z,9.757450
2022-10-26T02:48:17.314Z,9.757446
2022-10-26T02:49:17.312Z,9.757520
2022-10-26T02:50:17.291Z,9.757470
2022-10-26T02:51:18.314Z,9.757352
2022-10-26T02:52:17.311Z,9.757375
2022-10-26T02:53:17.270Z,9.757360
2022-10-26T02:54:17.264Z,9.757293
2022-10-26T02:55:17.248Z,9.757300
2022-10-26T02:56:17.256Z,9.757343
2022-10-26T02:57:17.243Z,9.757441
2022-10-26T02:58:17.256Z,9.757475
2022-10-26T02:59:17.220Z,9.757462
2022-10-26T03:00:17.212Z,9.757422
2022-10-26T03:01:17.234Z,9.757435
2022-10-26T03:02:17.206Z,9.757492
2022-10-26T03:03:17.219Z,9.757497
2022-10-26T03:04:17.243Z,9.757490
2022-10-26T03:05:17.178Z,9.757451
2022-10-26T03:06:17.165Z,9.757463
2022-10-26T03:07:17.154Z,9.757478
2022-10-26T03:08:17.239Z,9.757456
2022-10-26T03:09:17.135Z,9.757402
2022-10-26T03:10:17.123Z,9.757416
2022-10-26T03:11:18.119Z,9.757443
2022-10-26T03:12:17.108Z,9.757457
2022-10-26T03:13:17.127Z,9.757073
2022-10-26T03:14:17.096Z,9.757503
2022-10-26T03:15:17.082Z,9.757576
2022-10-26T03:16:17.074Z,9.757666
2022-10-26T03:17:17.068Z,9.757506
2022-10-26T03:18:17.086Z,9.757497
2022-10-26T03:19:17.051Z,9.757583
2022-10-26T03:20:17.039Z,9.757619
2022-10-26T03:21:17.038Z,9.757639
2022-10-26T03:22:17.022Z,9.757630
2022-10-26T03:23:17.042Z,9.757698
2022-10-26T03:24:17.009Z,9.757592
2022-10-26T03:25:17.009Z,9.757584
2022-10-26T03:26:16.992Z,9.757600
2022-10-26T03:27:17.003Z,9.757508
2022-10-26T03:28:17.007Z,9.757571
2022-10-26T03:29:16.973Z,9.757763
2022-10-26T03:30:16.958Z,9.757679
2022-10-26T03:31:16.958Z,9.757507
2022-10-26T03:32:16.949Z,9.757281
2022-10-26T03:33:16.989Z,9.757217
2022-10-26T03:34:16.937Z,9.757370
2022-10-26T03:35:16.911Z,9.757428
2022-10-26T03:36:16.914Z,9.757421
2022-10-26T03:37:16.901Z,9.757533
2022-10-26T03:38:16.923Z,9.757460
2022-10-26T03:39:16.888Z,9.757484
2022-10-26T03:40:16.879Z,9.757540
2022-10-26T03:41:16.869Z,9.757092
2022-10-26T03:42:16.858Z,9.757066
2022-10-26T03:43:16.874Z,9.757276
2022-10-26T03:44:16.842Z,9.757161
2022-10-26T03:45:16.833Z,9.757162
2022-10-26T03:46:16.822Z,9.757495
2022-10-26T03:47:16.823Z,9.757473
2022-10-26T03:48:16.836Z,9.757378
2022-10-26T03:49:16.801Z,9.757539
2022-10-26T03:50:16.783Z,9.757496
2022-10-26T03:51:17.785Z,9.757531
2022-10-26T03:52:16.781Z,9.757455
2022-10-26T03:53:16.796Z,9.757516
2022-10-26T03:54:16.757Z,9.757571
2022-10-26T03:55:16.748Z,9.757466
2022-10-26T03:56:16.741Z,9.757614
2022-10-26T03:57:16.733Z,9.757605
2022-10-26T03:58:16.791Z,9.757504
2022-10-26T03:59:16.723Z,9.757444
2022-10-26T04:00:16.728Z,9.757479
2022-10-26T04:01:16.739Z,9.757566
2022-10-26T04:02:16.690Z,9.757446
2022-10-26T04:03:16.712Z,9.757416
2022-10-26T04:04:16.745Z,9.757509
2022-10-26T04:05:16.726Z,9.757466
2022-10-26T04:06:16.657Z,9.757514
2022-10-26T04:07:16.636Z,9.757413
2022-10-26T04:08:17.670Z,9.757577
2022-10-26T04:09:16.635Z,9.757544
2022-10-26T04:10:16.629Z,9.757573
2022-10-26T04:11:16.614Z,9.757489
2022-10-26T04:12:16.610Z,9.757547
2022-10-26T04:13:16.632Z,9.757374
2022-10-26T04:14:16.586Z,9.757537
2022-10-26T04:15:16.577Z,9.757510
2022-10-26T04:16:16.558Z,9.757524
2022-10-26T04:17:17.598Z,9.757586
2022-10-26T04:18:16.552Z,9.757761
2022-10-26T04:19:16.575Z,9.757751
2022-10-26T04:20:16.543Z,9.757387
2022-10-26T04:21:16.533Z,9.757565
2022-10-26T04:22:16.515Z,9.757687
2022-10-26T04:23:16.583Z,9.757537
2022-10-26T04:24:16.543Z,9.757603
2022-10-26T04:25:16.487Z,9.757706
2022-10-26T04:26:16.491Z,9.757609
2022-10-26T04:27:16.491Z,9.757721
2022-10-26T04:28:16.476Z,9.757575
2022-10-26T04:29:16.492Z,9.757698
2022-10-26T04:30:16.456Z,9.757738
2022-10-26T04:31:16.446Z,9.757713
2022-10-26T04:32:16.439Z,9.757620
2022-10-26T04:33:16.430Z,9.757695
2022-10-26T04:34:16.451Z,9.757730
2022-10-26T04:35:16.414Z,9.757394
2022-10-26T04:36:16.422Z,9.757401
2022-10-26T04:37:16.402Z,9.757467
2022-10-26T04:38:16.391Z,9.757430
2022-10-26T04:39:16.406Z,9.757300
2022-10-26T04:40:16.373Z,9.757378
2022-10-26T04:41:16.358Z,9.757296
2022-10-26T04:42:16.352Z,9.757273
2022-10-26T04:43:16.340Z,9.757395
2022-10-26T04:44:17.373Z,9.757384
2022-10-26T04:45:16.332Z,9.757424
2022-10-26T04:46:16.880Z,9.757851
2022-10-26T04:47:16.311Z,9.757740
2022-10-26T04:48:16.337Z,9.757608
2022-10-26T04:49:16.322Z,9.757494
2022-10-26T04:50:16.287Z,9.757426
2022-10-26T04:51:16.272Z,9.757461
2022-10-26T04:52:16.267Z,9.757445
2022-10-26T04:53:16.258Z,9.757440
2022-10-26T04:54:16.277Z,9.757318
2022-10-26T04:55:16.240Z,9.757469
2022-10-26T04:56:16.247Z,9.757445
2022-10-26T04:57:16.228Z,9.757362
2022-10-26T04:58:16.222Z,9.757217
2022-10-26T04:59:16.240Z,9.757234
2022-10-26T05:00:16.209Z,9.757324
2022-10-26T05:01:16.243Z,9.757406
2022-10-26T05:02:16.257Z,9.757839
2022-10-26T05:03:16.252Z,9.757991
2022-10-26T05:04:16.203Z,9.757334
2022-10-26T05:05:16.167Z,9.757201
2022-10-26T05:06:16.148Z,9.757146
2022-10-26T05:07:16.161Z,9.757380
2022-10-26T05:08:16.136Z,9.757387
2022-10-26T05:09:16.166Z,9.757462
2022-10-26T05:10:16.129Z,9.757454
2022-10-26T05:11:16.106Z,9.757460
2022-10-26T05:12:16.111Z,9.757380
2022-10-26T05:13:16.130Z,9.757421
2022-10-26T05:14:16.117Z,9.757337
2022-10-26T05:15:16.076Z,9.757505
2022-10-26T05:16:16.085Z,9.757475
2022-10-26T05:17:16.064Z,9.757434
2022-10-26T05:18:16.051Z,9.757336
2022-10-26T05:19:16.074Z,9.757468
2022-10-26T05:20:16.039Z,9.757482
2022-10-26T05:21:16.017Z,9.757424
2022-10-26T05:22:16.023Z,9.757442
2022-10-26T05:23:16.004Z,9.757414
2022-10-26T05:24:16.028Z,9.757463
2022-10-26T05:25:15.991Z,9.757436
2022-10-26T05:26:15.987Z,9.757424
2022-10-26T05:27:15.977Z,9.757341
2022-10-26T05:28:15.969Z,9.757400
2022-10-26T05:29:15.989Z,9.757423
2022-10-26T05:30:15.956Z,9.757548
2022-10-26T05:31:15.945Z,9.757547
2022-10-26T05:32:15.939Z,9.757562
2022-10-26T05:33:15.939Z,9.757504
2022-10-26T05:34:15.945Z,9.757475
2022-10-26T05:35:15.913Z,9.757529
2022-10-26T05:36:15.909Z,9.757479
2022-10-26T05:37:15.899Z,9.757446
2022-10-26T05:38:16.004Z,9.757465
2022-10-26T05:39:15.906Z,9.757383
2022-10-26T05:40:15.873Z,9.757326
2022-10-26T05:41:15.864Z,9.757426
2022-10-26T05:42:15.857Z,9.757435
2022-10-26T05:43:15.846Z,9.757504
2022-10-26T05:44:15.881Z,9.757381
2022-10-26T05:45:15.827Z,9.757376
2022-10-26T05:46:15.813Z,9.757405
2022-10-26T05:47:15.814Z,9.757494
2022-10-26T05:48:15.799Z,9.757380
2022-10-26T05:49:15.823Z,9.757328
2022-10-26T05:50:15.789Z,9.757484
2022-10-26T05:51:15.785Z,9.757502
2022-10-26T05:52:15.788Z,9.757356
2022-10-26T05:53:15.756Z,9.757441
2022-10-26T05:54:15.783Z,9.757564
2022-10-26T05:55:15.754Z,9.757460
2022-10-26T05:56:15.736Z,9.757447
2022-10-26T05:57:15.728Z,9.757388
2022-10-26T05:58:15.720Z,9.757571
2022-10-26T05:59:15.748Z,9.757514
2022-10-26T06:00:15.701Z,9.757528
2022-10-26T06:01:15.749Z,9.757584
2022-10-26T06:02:15.775Z,9.757398
2022-10-26T06:03:15.676Z,9.757399
2022-10-26T06:04:16.697Z,9.757428
2022-10-26T06:05:15.702Z,9.757464
2022-10-26T06:06:15.650Z,9.757682
2022-10-26T06:07:15.645Z,9.757616
2022-10-26T06:08:15.623Z,9.757370
2022-10-26T06:09:15.666Z,9.757361
2022-10-26T06:10:15.626Z,9.757369
2022-10-26T06:11:15.610Z,9.757467
2022-10-26T06:12:18.501Z,9.757483
2022-10-26T06:13:15.594Z,9.757364
2022-10-26T06:14:15.587Z,9.757400
2022-10-26T06:15:15.607Z,9.757434
2022-10-26T06:16:15.573Z,9.757541
2022-10-26T06:17:15.565Z,9.757394
2022-10-26T06:18:15.557Z,9.757403
2022-10-26T06:19:15.547Z,9.757439
2022-10-26T06:20:15.578Z,9.757577
2022-10-26T06:21:15.533Z,9.757675
2022-10-26T06:22:15.516Z,9.757858
2022-10-26T06:23:15.519Z,9.757631
2022-10-26T06:24:15.508Z,9.757666
2022-10-26T06:25:15.528Z,9.757011
2022-10-26T06:26:15.489Z,9.756365
2022-10-26T06:27:18.570Z,9.756906
2022-10-26T06:28:15.468Z,9.757446
2022-10-26T06:29:15.468Z,9.757669
2022-10-26T06:30:15.487Z,9.758145
2022-10-26T06:31:15.443Z,9.757763
2022-10-26T06:32:15.447Z,9.757976
2022-10-26T06:33:28.901Z,9.756939
2022-10-26T06:34:17.417Z,9.757587
2022-10-26T06:35:15.440Z,9.758009
2022-10-26T06:36:15.407Z,9.757600
2022-10-26T06:37:15.405Z,9.757690
2022-10-26T06:38:15.378Z,9.757717
2022-10-26T06:39:15.376Z,9.757661
2022-10-26T06:40:15.408Z,9.757730
2022-10-26T06:41:15.353Z,9.757668
2022-10-26T06:42:15.351Z,9.757600
2022-10-26T06:43:15.339Z,9.757605
2022-10-26T06:44:15.330Z,9.757562
2022-10-26T06:46:15.358Z,9.757582
2022-10-26T06:47:18.634Z,9.757682
2022-10-26T06:48:16.296Z,9.757679
2022-10-26T06:49:15.286Z,9.757580
2022-10-26T06:50:15.317Z,9.757538
2022-10-26T06:51:15.267Z,9.757602
2022-10-26T06:52:15.304Z,9.757515
2022-10-26T06:53:15.257Z,9.757471
2022-10-26T06:54:15.250Z,9.757619
2022-10-26T06:55:15.265Z,9.757516
2022-10-26T06:56:15.239Z,9.757408
2022-10-26T06:57:15.221Z,9.757721
2022-10-26T06:58:15.229Z,9.757725
2022-10-26T06:59:15.201Z,9.757737
2022-10-26T07:00:15.316Z,9.757628
2022-10-26T07:01:15.211Z,9.757722
2022-10-26T07:02:15.274Z,9.757717
2022-10-26T07:03:15.170Z,9.757723
2022-10-26T07:04:15.161Z,9.757944
2022-10-26T07:05:15.174Z,9.758148
2022-10-26T07:06:15.238Z,9.758216
2022-10-26T07:07:15.135Z,9.757659
2022-10-26T07:08:15.128Z,9.757564
2022-10-26T07:09:15.129Z,9.757606
2022-10-26T07:10:15.143Z,9.757901
2022-10-26T07:11:15.101Z,9.757855
2022-10-26T07:12:15.096Z,9.757815
2022-10-26T07:13:15.089Z,9.757845
2022-10-26T07:14:15.076Z,9.757883
2022-10-26T07:15:15.096Z,9.757872
2022-10-26T07:16:15.053Z,9.757645
2022-10-26T07:17:15.062Z,9.757647
2022-10-26T07:18:15.037Z,9.757586
2022-10-26T07:19:15.033Z,9.757657
2022-10-26T07:20:15.094Z,9.757666
2022-10-26T07:21:15.012Z,9.757746
2022-10-26T07:22:15.002Z,9.757539
2022-10-26T07:23:14.997Z,9.757440
2022-10-26T07:24:15.008Z,9.757394
2022-10-26T07:25:15.012Z,9.757607
2022-10-26T07:26:14.968Z,9.757959
2022-10-26T07:27:14.960Z,9.758058
2022-10-26T07:28:14.969Z,9.758097
2022-10-26T07:29:14.947Z,9.757708
2022-10-26T07:30:14.953Z,9.757504
2022-10-26T07:31:15.937Z,9.757616
2022-10-26T07:32:14.920Z,9.757558
2022-10-26T07:33:14.907Z,9.757718
2022-10-26T07:34:14.894Z,9.757619
2022-10-26T07:35:14.926Z,9.757648
2022-10-26T07:36:14.879Z,9.757431
2022-10-26T07:37:14.869Z,9.757379
2022-10-26T07:38:14.863Z,9.757298
2022-10-26T07:39:14.852Z,9.757631
2022-10-26T07:40:14.896Z,9.757682
2022-10-26T07:41:14.842Z,9.757405
2022-10-26T07:42:14.828Z,9.757446
2022-10-26T07:43:14.828Z,9.757236
2022-10-26T07:44:14.817Z,9.757424
2022-10-26T07:45:14.830Z,9.757486
2022-10-26T07:46:14.793Z,9.757380
2022-10-26T07:47:14.781Z,9.757550
2022-10-26T07:48:14.779Z,9.757599
2022-10-26T07:49:17.638Z,9.757630
2022-10-26T07:50:14.796Z,9.757567
2022-10-26T07:51:14.747Z,9.757479
2022-10-26T07:52:14.744Z,9.757470
2022-10-26T07:53:14.730Z,9.757438
2022-10-26T07:54:14.722Z,9.757499
2022-10-26T07:55:14.749Z,9.757410
2022-10-26T07:56:14.714Z,9.757302
2022-10-26T07:57:14.711Z,9.757464
2022-10-26T07:58:14.708Z,9.757499
2022-10-26T07:59:14.681Z,9.757416
2022-10-26T08:00:14.679Z,9.757380
2022-10-26T08:01:14.873Z,9.757378
2022-10-26T08:02:14.658Z,9.757482
2022-10-26T08:03:14.653Z,9.757329
2022-10-26T08:04:14.648Z,9.757403
2022-10-26T08:05:14.639Z,9.757534
2022-10-26T08:06:14.641Z,9.757429
2022-10-26T08:07:14.637Z,9.757345
2022-10-26T08:08:14.601Z,9.757456
2022-10-26T08:09:14.613Z,9.757467
2022-10-26T08:10:14.640Z,9.757420
2022-10-26T08:11:14.604Z,9.757388
2022-10-26T08:12:14.566Z,9.757627
2022-10-26T08:13:14.563Z,9.757530
2022-10-26T08:14:14.549Z,9.757340
2022-10-26T08:15:14.547Z,9.757418
2022-10-26T08:16:14.564Z,9.757177
2022-10-26T08:17:14.528Z,9.757218
2022-10-26T08:18:14.517Z,9.757715
2022-10-26T08:19:14.512Z,9.757532
2022-10-26T08:20:14.506Z,9.757516
2022-10-26T08:21:21.804Z,9.757536
2022-10-26T08:22:15.518Z,9.757550
2022-10-26T08:23:14.493Z,9.757440
2022-10-26T08:24:14.481Z,9.757351
2022-10-26T08:25:17.575Z,9.757480
2022-10-26T08:26:16.451Z,9.757503
2022-10-26T08:27:14.453Z,9.757710
2022-10-26T08:28:14.431Z,9.757559
2022-10-26T08:29:14.426Z,9.757549
2022-10-26T08:30:14.450Z,9.757514
2022-10-26T08:31:14.411Z,9.757498
2022-10-26T08:32:14.407Z,9.757394
2022-10-26T08:33:14.399Z,9.757414
2022-10-26T08:34:14.381Z,9.757393
2022-10-26T08:35:15.421Z,9.757495
2022-10-26T08:36:14.379Z,9.757471
2022-10-26T08:37:14.368Z,9.757610
2022-10-26T08:38:14.356Z,9.757270
2022-10-26T08:39:14.352Z,9.757463
2022-10-26T08:40:14.341Z,9.757432
2022-10-26T08:41:14.355Z,9.757594
2022-10-26T08:42:14.342Z,9.757462
2022-10-26T08:43:14.334Z,9.757377
2022-10-26T08:44:14.307Z,9.757415
2022-10-26T08:45:14.294Z,9.757410
2022-10-26T08:46:15.327Z,9.757130
2022-10-26T08:47:14.347Z,9.757268
2022-10-26T08:48:14.286Z,9.757303
2022-10-26T08:49:14.265Z,9.757368
2022-10-26T08:50:14.258Z,9.757236
2022-10-26T08:51:14.276Z,9.757594
2022-10-26T08:52:14.238Z,9.757792
2022-10-26T08:53:14.230Z,9.757586
2022-10-26T08:54:14.216Z,9.757507
2022-10-26T08:55:15.221Z,9.757565
2022-10-26T08:56:14.257Z,9.757480
2022-10-26T08:57:14.205Z,9.757528
2022-10-26T08:58:14.192Z,9.757503
2022-10-26T08:59:14.183Z,9.757532
2022-10-26T09:00:14.179Z,9.757469
2022-10-26T09:01:14.388Z,9.757491
2022-10-26T09:02:14.167Z,9.757489
2022-10-26T09:03:14.140Z,9.757386
2022-10-26T09:04:14.133Z,9.757297
2022-10-26T09:05:14.133Z,9.757498
2022-10-26T09:06:14.183Z,9.757456
2022-10-26T09:07:14.114Z,9.757463
2022-10-26T09:08:14.105Z,9.757516
2022-10-26T09:09:14.101Z,9.757564
2022-10-26T09:10:14.176Z,9.757503
2022-10-26T09:11:14.108Z,9.757442
2022-10-26T09:12:14.069Z,9.757558
2022-10-26T09:13:14.075Z,9.757453
2022-10-26T09:14:14.056Z,9.757569
2022-10-26T09:15:14.046Z,9.757551
2022-10-26T09:16:14.055Z,9.757490
2022-10-26T09:17:15.023Z,9.757417
2022-10-26T09:18:14.018Z,9.757465
2022-10-26T09:19:14.016Z,9.757489
2022-10-26T09:20:14.004Z,9.757442
2022-10-26T09:21:14.026Z,9.757474
2022-10-26T09:22:13.982Z,9.757486
2022-10-26T09:23:13.983Z,9.757560
2022-10-26T09:24:13.975Z,9.757473
2022-10-26T09:25:13.971Z,9.757432
2022-10-26T09:26:13.973Z,9.757336
2022-10-26T09:27:13.943Z,9.757072
2022-10-26T09:28:14.929Z,9.757489
2022-10-26T09:29:14.921Z,9.757549
2022-10-26T09:30:13.912Z,9.757725
2022-10-26T09:31:13.931Z,9.757707
2022-10-26T09:32:13.898Z,9.757607
2022-10-26T09:33:13.902Z,9.757465
2022-10-26T09:34:13.882Z,9.757479
2022-10-26T09:35:15.009Z,9.757443
2022-10-26T09:36:16.784Z,9.757391
2022-10-26T09:37:13.856Z,9.757442
2022-10-26T09:38:13.856Z,9.757414
2022-10-26T09:39:13.847Z,9.757528
2022-10-26T09:40:13.832Z,9.757517
2022-10-26T09:41:13.868Z,9.757449
2022-10-26T09:42:13.818Z,9.757497
2022-10-26T09:43:13.810Z,9.757546
2022-10-26T09:44:13.801Z,9.757464
2022-10-26T09:45:13.798Z,9.757465
2022-10-26T09:46:13.838Z,9.757440
2022-10-26T09:47:13.780Z,9.757422
2022-10-26T09:48:13.760Z,9.757433
2022-10-26T09:49:13.755Z,9.757401
2022-10-26T09:50:13.748Z,9.757489
2022-10-26T09:51:13.897Z,9.757380
2022-10-26T09:52:13.729Z,9.757313
2022-10-26T09:53:14.724Z,9.757409
2022-10-26T09:54:13.721Z,9.757494
2022-10-26T09:55:13.711Z,9.757469
2022-10-26T09:56:13.703Z,9.757557
2022-10-26T09:57:13.731Z,9.757516
2022-10-26T09:58:13.682Z,9.757508
2022-10-26T09:59:13.676Z,9.757348
2022-10-26T10:00:13.668Z,9.757322
2022-10-26T10:01:13.715Z,9.757505
2022-10-26T10:02:13.703Z,9.757439
2022-10-26T10:03:13.663Z,9.757449
2022-10-26T10:04:13.642Z,9.757691
2022-10-26T10:05:19.431Z,9.757471
2022-10-26T10:06:15.658Z,9.757475
2022-10-26T10:07:13.612Z,9.757431
2022-10-26T10:08:13.598Z,9.757463
2022-10-26T10:09:13.593Z,9.757411
2022-10-26T10:10:13.593Z,9.757479
2022-10-26T10:11:13.609Z,9.757434
2022-10-26T10:12:13.572Z,9.757431
2022-10-26T10:13:13.552Z,9.757486
2022-10-26T10:14:13.553Z,9.757473
2022-10-26T10:15:13.535Z,9.757461
2022-10-26T10:16:13.569Z,9.757425
2022-10-26T10:17:13.570Z,9.757405
2022-10-26T10:18:13.523Z,9.757446
2022-10-26T10:19:13.517Z,9.757442
2022-10-26T10:20:13.501Z,9.757532
2022-10-26T10:21:13.517Z,9.757408
2022-10-26T10:22:13.488Z,9.757436
2022-10-26T10:23:13.481Z,9.757431
2022-10-26T10:24:13.470Z,9.757433
2022-10-26T10:25:13.442Z,9.757388
2022-10-26T10:26:14.507Z,9.757490
2022-10-26T10:27:13.442Z,9.757478
2022-10-26T10:28:13.464Z,9.757455
2022-10-26T10:29:13.431Z,9.757450
2022-10-26T10:30:13.412Z,9.757441
2022-10-26T10:31:13.500Z,9.757512
2022-10-26T10:32:13.396Z,9.757490
2022-10-26T10:33:13.400Z,9.757414
2022-10-26T10:34:13.374Z,9.757489
2022-10-26T10:35:13.370Z,9.757356
2022-10-26T10:36:13.398Z,9.757247
2022-10-26T10:37:13.357Z,9.757267
2022-10-26T10:38:13.349Z,9.757313
2022-10-26T10:39:13.416Z,9.757469
2022-10-26T10:40:15.391Z,9.757531
2022-10-26T10:41:14.359Z,9.757528
2022-10-26T10:42:13.317Z,9.757663
2022-10-26T10:43:13.309Z,9.757510
2022-10-26T10:44:13.299Z,9.757724
2022-10-26T10:45:13.304Z,9.757569
2022-10-26T10:46:13.278Z,9.757528
2022-10-26T10:47:13.302Z,9.757348
2022-10-26T10:48:13.262Z,9.757452
2022-10-26T10:49:13.250Z,9.757537
2022-10-26T10:50:13.258Z,9.757595
2022-10-26T10:51:13.250Z,9.757451
2022-10-26T10:52:13.261Z,9.757895
2022-10-26T10:53:13.214Z,9.757388
2022-10-26T10:54:13.211Z,9.757485
2022-10-26T10:55:13.197Z,9.757597
2022-10-26T10:56:13.196Z,9.757189
2022-10-26T10:57:13.215Z,9.757785
2022-10-26T10:58:13.177Z,9.757698
2022-10-26T10:59:13.179Z,9.757808
2022-10-26T11:00:13.177Z,9.757561
2022-10-26T11:01:13.252Z,9.757424
2022-10-26T11:02:13.242Z,9.757421
2022-10-26T11:03:13.138Z,9.757326
2022-10-26T11:05:13.119Z,9.757293
2022-10-26T11:06:13.152Z,9.757358
2022-10-26T11:07:13.101Z,9.757417
2022-10-26T11:08:13.091Z,9.757429
2022-10-26T11:09:13.079Z,9.757414
2022-10-26T11:10:13.072Z,9.757331
2022-10-26T11:11:13.102Z,9.757417
2022-10-26T11:12:13.090Z,9.757432
2022-10-26T11:13:13.044Z,9.757463
2022-10-26T11:14:14.045Z,9.757455
2022-10-26T11:15:13.036Z,9.757669
2022-10-26T11:16:13.072Z,9.757526
2022-10-26T11:17:13.019Z,9.757501
2022-10-26T11:18:13.021Z,9.757485
2022-10-26T11:19:13.002Z,9.757474
2022-10-26T11:20:15.097Z,9.757642
2022-10-26T11:21:13.022Z,9.757496
2022-10-26T11:22:12.975Z,9.757421
2022-10-26T11:23:12.967Z,9.757439
2022-10-26T11:24:12.963Z,9.757439
2022-10-26T11:25:12.952Z,9.757462
2022-10-26T11:26:12.955Z,9.757440
2022-10-26T11:27:12.967Z,9.757385
2022-10-26T11:28:12.940Z,9.757440
2022-10-26T11:29:12.983Z,9.757332
2022-10-26T11:30:12.915Z,9.757456
2022-10-26T11:31:12.904Z,9.757522
2022-10-26T11:32:12.926Z,9.757493
2022-10-26T11:33:12.902Z,9.757880
2022-10-26T11:34:12.877Z,9.757478
2022-10-26T11:35:12.865Z,9.757432
2022-10-26T11:36:12.863Z,9.757562
2022-10-26T11:37:12.892Z,9.758076
2022-10-26T11:38:12.839Z,9.757382
2022-10-26T11:39:12.846Z,9.757174
2022-10-26T11:40:12.949Z,9.757499
2022-10-26T11:41:12.851Z,9.757567
2022-10-26T11:42:12.820Z,9.757426
2022-10-26T11:43:12.811Z,9.757325
2022-10-26T11:44:12.812Z,9.757298
2022-10-26T11:45:12.792Z,9.757857
2022-10-26T11:46:15.214Z,9.757656
2022-10-26T11:47:13.778Z,9.757403
2022-10-26T11:48:12.777Z,9.757447